Anaheim, California
Current Conditions -  °F | °C
As of 6:53 AM on Sunday 21 Dec 2014 (Local Time) from KFUL Reporting Station
Haze Haze  
Wind Chill: 51°   Ceiling: Unl
Heat Index: 51°   Visibility: 3mi
Dew Point: 47°   Wind: 5mph
Humidity: 86%   Direction: 90°E
Pressure: 30.13"   Gusts: NA
Location:  33.83°N, 117.91°W
Report Text: KFUL 211453Z 09004KT 3SM BR CLR 11/08 A3013 RMK AO2 SLP201 T01060083 51008
Loading
Personal Weather Stations






























Interactive Weather Map New forecast layout! Learn more

10-Day Weather Forecast

Advertisements
Track Severe Weather on mobile